Time;durP1;ratioP1;P1;durP2;ratioP2;P2;SDS_P1;SDS_P2;PMS_P1;PMS_P2;Temp;Humidity;BMP_temperature;BMP_pressure;BME280_temperature;BME280_humidity;BME280_pressure;Samples;Min_cycle;Max_cycle;Signal;HPM_P1;HPM_P2
2022/02/25 00:00:52;;;;;;;1.35;0.80;;;;;;;;;;5073489;28;20035;-39
2022/02/25 00:03:17;;;;;;;4.40;1.23;;;;;;;;;;5073250;28;20103;-39
2022/02/25 00:05:43;;;;;;;2.20;1.65;;;;;;;;;;5073100;28;20056;-39
2022/02/25 00:08:08;;;;;;;4.47;1.35;;;;;;;;;;5073059;28;20469;-39
2022/02/25 00:10:34;;;;;;;1.00;0.80;;;;;;;;;;5073188;28;20067;-39
2022/02/25 00:12:59;;;;;;;1.83;1.08;;;;;;;;;;5072955;28;20029;-39
2022/02/25 00:15:25;;;;;;;1.63;0.85;;;;;;;;;;5072793;28;20032;-39
2022/02/25 00:17:50;;;;;;;1.52;0.95;;;;;;;;;;5071508;28;20067;-39
2022/02/25 00:20:16;;;;;;;2.50;1.17;;;;;;;;;;5072780;28;20276;-39
2022/02/25 00:22:42;;;;;;;1.67;0.93;;;;;;;;;;5072773;28;20030;-39
2022/02/25 00:25:08;;;;;;;2.17;1.38;;;;;;;;;;5072494;28;20039;-39
2022/02/25 00:27:35;;;;;;;2.67;1.25;;;;;;;;;;5072566;28;20113;-39
2022/02/25 00:30:01;;;;;;;1.20;0.90;;;;;;;;;;5072650;28;20142;-39
2022/02/25 00:32:26;;;;;;;4.18;1.50;;;;;;;;;;5072186;28;20102;-39
2022/02/25 00:34:52;;;;;;;2.03;1.30;;;;;;;;;;5072699;28;20028;-39
2022/02/25 00:37:17;;;;;;;2.88;1.35;;;;;;;;;;5072356;28;20028;-39
2022/02/25 00:39:43;;;;;;;3.90;1.50;;;;;;;;;;5072358;28;20028;-39
2022/02/25 00:42:10;;;;;;;2.97;1.50;;;;;;;;;;5072291;28;20391;-39
2022/02/25 00:44:36;;;;;;;1.92;1.40;;;;;;;;;;5072560;28;20025;-44
2022/02/25 00:47:02;;;;;;;2.22;1.70;;;;;;;;;;5072453;28;20635;-39
2022/02/25 00:49:27;;;;;;;2.05;1.85;;;;;;;;;;5071483;28;20051;-39
2022/02/25 00:51:53;;;;;;;8.02;3.42;;;;;;;;;;5072533;28;20038;-39
2022/02/25 00:54:18;;;;;;;5.97;2.67;;;;;;;;;;5071920;28;20432;-39
2022/02/25 00:56:43;;;;;;;9.68;2.85;;;;;;;;;;5072118;28;20028;-39
2022/02/25 00:59:09;;;;;;;4.25;3.20;;;;;;;;;;5071866;28;20039;-46
2022/02/25 01:01:34;;;;;;;6.55;3.05;;;;;;;;;;5072221;28;20019;-39
2022/02/25 01:04:00;;;;;;;6.90;2.65;;;;;;;;;;5071908;28;20025;-39
2022/02/25 01:06:25;;;;;;;4.95;2.55;;;;;;;;;;5071716;28;20065;-41
2022/02/25 01:08:51;;;;;;;6.43;2.13;;;;;;;;;;5072062;28;20028;-44
2022/02/25 01:11:17;;;;;;;3.22;2.20;;;;;;;;;;5072011;28;20025;-39
2022/02/25 01:13:42;;;;;;;3.42;2.35;;;;;;;;;;5071834;28;20486;-39
2022/02/25 01:16:07;;;;;;;2.85;2.15;;;;;;;;;;5071607;28;20060;-40
2022/02/25 01:18:33;;;;;;;3.97;2.70;;;;;;;;;;5071955;28;20059;-39
2022/02/25 01:20:58;;;;;;;4.15;2.50;;;;;;;;;;5071950;28;20048;-39
2022/02/25 01:23:24;;;;;;;7.47;2.92;;;;;;;;;;5071829;28;20020;-39
2022/02/25 01:25:49;;;;;;;5.47;2.40;;;;;;;;;;5070296;28;20099;-39
2022/02/25 01:28:15;;;;;;;3.15;2.08;;;;;;;;;;5071854;28;20037;-39
2022/02/25 01:30:40;;;;;;;9.32;2.80;;;;;;;;;;5071513;28;20020;-39
2022/02/25 01:33:05;;;;;;;2.38;1.35;;;;;;;;;;5070227;28;20056;-39
2022/02/25 01:35:31;;;;;;;3.25;1.67;;;;;;;;;;5071407;28;20036;-39
2022/02/25 01:37:56;;;;;;;2.05;1.48;;;;;;;;;;5071376;28;20060;-39
2022/02/25 01:40:22;;;;;;;3.45;1.83;;;;;;;;;;5071621;28;20025;-39
2022/02/25 01:42:51;;;;;;;2.10;1.50;;;;;;;;;;5071575;28;20036;-39
2022/02/25 01:45:17;;;;;;;4.75;2.25;;;;;;;;;;5071279;28;20032;-39
2022/02/25 01:47:43;;;;;;;2.78;1.25;;;;;;;;;;5070027;28;20051;-39
2022/02/25 01:50:10;;;;;;;1.38;1.20;;;;;;;;;;5071186;28;20020;-39
2022/02/25 01:52:35;;;;;;;6.20;1.58;;;;;;;;;;5071355;28;20119;-39
2022/02/25 01:55:01;;;;;;;2.42;1.40;;;;;;;;;;5071279;28;20652;-39
2022/02/25 01:57:26;;;;;;;2.20;1.60;;;;;;;;;;5071215;28;20037;-39
2022/02/25 01:59:52;;;;;;;3.55;1.75;;;;;;;;;;5071180;28;20013;-39
2022/02/25 02:02:17;;;;;;;3.40;2.05;;;;;;;;;;5071048;28;20074;-39
2022/02/25 02:04:43;;;;;;;3.05;1.27;;;;;;;;;;5071102;28;20020;-39
2022/02/25 02:07:08;;;;;;;7.72;1.60;;;;;;;;;;5070997;28;20094;-39
2022/02/25 02:09:34;;;;;;;3.47;2.20;;;;;;;;;;5071048;28;20024;-39
2022/02/25 02:11:59;;;;;;;4.25;1.42;;;;;;;;;;5071079;28;20039;-39
2022/02/25 02:14:25;;;;;;;3.35;1.92;;;;;;;;;;5071239;28;20063;-39
2022/02/25 02:16:51;;;;;;;2.88;1.33;;;;;;;;;;5071098;28;20433;-39
2022/02/25 02:19:17;;;;;;;4.70;2.20;;;;;;;;;;5070893;28;20024;-39
2022/02/25 02:21:44;;;;;;;4.68;2.42;;;;;;;;;;5071080;28;20082;-39
2022/02/25 02:24:10;;;;;;;6.85;1.77;;;;;;;;;;5070936;28;20024;-39
2022/02/25 02:26:35;;;;;;;5.90;2.10;;;;;;;;;;5071074;28;20057;-39
2022/02/25 02:29:01;;;;;;;2.00;1.67;;;;;;;;;;5071001;28;20380;-39
2022/02/25 02:31:26;;;;;;;2.80;1.85;;;;;;;;;;5070688;28;20101;-39
2022/02/25 02:33:52;;;;;;;7.65;1.92;;;;;;;;;;5070836;28;20120;-39
2022/02/25 02:36:18;;;;;;;2.17;1.40;;;;;;;;;;5069553;28;20025;-39
2022/02/25 02:38:44;;;;;;;3.70;1.67;;;;;;;;;;5071010;28;20029;-39
2022/02/25 02:41:10;;;;;;;2.45;2.20;;;;;;;;;;5070991;28;20031;-39
2022/02/25 02:43:35;;;;;;;4.68;1.60;;;;;;;;;;5071065;28;20021;-39
2022/02/25 02:46:01;;;;;;;3.53;1.77;;;;;;;;;;5071048;28;20486;-39
2022/02/25 02:48:27;;;;;;;2.28;1.45;;;;;;;;;;5070642;28;20040;-40
2022/02/25 02:50:52;;;;;;;4.32;1.88;;;;;;;;;;5070826;28;20390;-39
2022/02/25 02:53:17;;;;;;;11.88;2.15;;;;;;;;;;5070794;28;20028;-39
2022/02/25 02:55:43;;;;;;;2.92;1.80;;;;;;;;;;5070909;28;20459;-39
2022/02/25 02:58:09;;;;;;;1.98;1.75;;;;;;;;;;5070602;28;20028;-39
2022/02/25 03:00:35;;;;;;;3.15;1.95;;;;;;;;;;5070931;28;20021;-39
2022/02/25 03:03:02;;;;;;;2.65;1.65;;;;;;;;;;5070513;28;20032;-40
2022/02/25 03:05:27;;;;;;;3.65;1.55;;;;;;;;;;5070551;28;20044;-39
2022/02/25 03:07:53;;;;;;;3.35;1.88;;;;;;;;;;5070588;28;20384;-39
2022/02/25 03:10:19;;;;;;;4.00;1.88;;;;;;;;;;5070381;28;20060;-39
2022/02/25 03:12:44;;;;;;;2.90;1.88;;;;;;;;;;5072101;28;20028;-39
2022/02/25 03:15:11;;;;;;;2.72;1.90;;;;;;;;;;5074009;28;20420;-39
2022/02/25 03:17:37;;;;;;;6.55;2.50;;;;;;;;;;5074051;28;20391;-39
2022/02/25 03:20:06;;;;;;;4.15;2.42;;;;;;;;;;5074039;28;20025;-39
2022/02/25 03:22:32;;;;;;;7.30;3.15;;;;;;;;;;5074018;28;20038;-39
2022/02/25 03:24:57;;;;;;;6.15;2.40;;;;;;;;;;5073869;28;20115;-39
2022/02/25 03:27:24;;;;;;;7.78;2.60;;;;;;;;;;5073749;28;20036;-39
2022/02/25 03:29:49;;;;;;;3.85;1.92;;;;;;;;;;5074037;28;20020;-39
2022/02/25 03:32:15;;;;;;;5.82;2.20;;;;;;;;;;5073476;28;20189;-39
2022/02/25 03:34:41;;;;;;;2.47;2.03;;;;;;;;;;5074016;28;20031;-39
2022/02/25 03:37:06;;;;;;;7.60;1.80;;;;;;;;;;5073935;28;20028;-39
2022/02/25 03:39:31;;;;;;;6.45;2.30;;;;;;;;;;5073844;28;20648;-39
2022/02/25 03:41:57;;;;;;;3.30;1.73;;;;;;;;;;5073857;28;20131;-39
2022/02/25 03:44:22;;;;;;;3.65;2.55;;;;;;;;;;5072059;28;20035;-39
2022/02/25 03:46:48;;;;;;;3.15;2.22;;;;;;;;;;5073720;28;20032;-39
2022/02/25 03:49:14;;;;;;;5.13;2.05;;;;;;;;;;5073358;28;20403;-39
2022/02/25 03:51:39;;;;;;;3.20;1.70;;;;;;;;;;5073364;28;20031;-39
2022/02/25 03:54:05;;;;;;;6.13;2.17;;;;;;;;;;5073651;28;20072;-39
2022/02/25 03:56:30;;;;;;;3.25;1.90;;;;;;;;;;5073523;28;20017;-39
2022/02/25 03:58:55;;;;;;;2.97;2.05;;;;;;;;;;5073330;28;20142;-39
2022/02/25 04:01:21;;;;;;;4.72;1.90;;;;;;;;;;5073391;28;20521;-39
2022/02/25 04:03:46;;;;;;;3.15;2.05;;;;;;;;;;5073370;28;20062;-39
2022/02/25 04:06:12;;;;;;;3.78;2.45;;;;;;;;;;5072825;28;20481;-39
2022/02/25 04:08:37;;;;;;;4.35;2.67;;;;;;;;;;5073453;28;20043;-39
2022/02/25 04:11:03;;;;;;;3.13;2.08;;;;;;;;;;5073063;28;20478;-39
2022/02/25 04:13:28;;;;;;;3.05;2.20;;;;;;;;;;5072763;28;20028;-39
2022/02/25 04:15:54;;;;;;;8.18;2.55;;;;;;;;;;5072962;28;20031;-39
2022/02/25 04:18:19;;;;;;;4.70;3.08;;;;;;;;;;5072939;28;20037;-39
2022/02/25 04:20:45;;;;;;;4.53;2.35;;;;;;;;;;5073062;28;20016;-39
2022/02/25 04:23:10;;;;;;;2.97;2.08;;;;;;;;;;5072347;28;20467;-39
2022/02/25 04:25:36;;;;;;;4.05;3.22;;;;;;;;;;5072704;28;20028;-39
2022/02/25 04:28:02;;;;;;;5.18;2.50;;;;;;;;;;5072808;28;20173;-39
2022/02/25 04:30:28;;;;;;;3.97;2.15;;;;;;;;;;5072631;28;20028;-39
2022/02/25 04:32:53;;;;;;;3.95;2.33;;;;;;;;;;5072382;28;20503;-39
2022/02/25 04:35:20;;;;;;;3.20;1.63;;;;;;;;;;5072622;28;20027;-39
2022/02/25 04:37:45;;;;;;;3.40;1.83;;;;;;;;;;5054608;28;20043;-39
2022/02/25 04:40:11;;;;;;;3.63;2.20;;;;;;;;;;5072309;28;20383;-39
2022/02/25 04:42:37;;;;;;;5.07;2.90;;;;;;;;;;5072384;28;20127;-39
2022/02/25 04:45:04;;;;;;;5.15;2.65;;;;;;;;;;5072547;28;20016;-39
2022/02/25 04:47:31;;;;;;;3.05;2.22;;;;;;;;;;5072028;28;20048;-39
2022/02/25 04:49:56;;;;;;;8.07;2.70;;;;;;;;;;5072192;28;20016;-39
2022/02/25 04:52:22;;;;;;;5.38;2.35;;;;;;;;;;5072102;28;20028;-39
2022/02/25 04:54:48;;;;;;;6.38;2.15;;;;;;;;;;5072186;28;20019;-39
2022/02/25 04:57:13;;;;;;;4.20;2.47;;;;;;;;;;5072017;28;20040;-39
2022/02/25 04:59:39;;;;;;;3.85;2.55;;;;;;;;;;5072354;28;20024;-39
2022/02/25 05:02:04;;;;;;;3.40;1.83;;;;;;;;;;5071914;28;20035;-39
2022/02/25 05:04:30;;;;;;;2.92;1.63;;;;;;;;;;5072111;28;20086;-39
2022/02/25 05:06:55;;;;;;;4.13;2.17;;;;;;;;;;5072046;28;20029;-39
2022/02/25 05:09:21;;;;;;;3.80;2.08;;;;;;;;;;5072029;28;20081;-39
2022/02/25 05:11:46;;;;;;;4.07;1.92;;;;;;;;;;5071911;28;20475;-39
2022/02/25 05:20:15;;;;;;;2.47;1.83;;;;;;;;;;5070792;28;20055;-39
2022/02/25 05:22:26;;;;;;;5.43;2.50;;;;;;;;;;5071925;28;20036;-39
2022/02/25 05:24:51;;;;;;;3.97;2.58;;;;;;;;;;5071830;28;20023;-39
2022/02/25 05:27:16;;;;;;;6.90;2.45;;;;;;;;;;5071770;28;20502;-39
2022/02/25 05:29:42;;;;;;;3.85;2.03;;;;;;;;;;5071503;28;20052;-39
2022/02/25 05:32:07;;;;;;;5.82;2.25;;;;;;;;;;5071508;28;20056;-39
2022/02/25 05:34:33;;;;;;;4.85;2.83;;;;;;;;;;5071088;28;20024;-39
2022/02/25 05:37:00;;;;;;;2.65;1.77;;;;;;;;;;5071237;28;20501;-39
2022/02/25 05:39:26;;;;;;;4.07;2.15;;;;;;;;;;5071615;28;20028;-39
2022/02/25 05:41:51;;;;;;;4.43;1.98;;;;;;;;;;5071697;28;20052;-39
2022/02/25 05:44:16;;;;;;;3.25;2.28;;;;;;;;;;5071332;28;20019;-39
2022/02/25 05:46:42;;;;;;;4.65;2.03;;;;;;;;;;5071556;28;20479;-39
2022/02/25 05:49:07;;;;;;;6.35;2.03;;;;;;;;;;5071584;28;20447;-39
2022/02/25 05:51:33;;;;;;;3.78;2.33;;;;;;;;;;5071564;28;20383;-39
2022/02/25 05:53:58;;;;;;;4.15;2.03;;;;;;;;;;5071231;28;20027;-39
2022/02/25 05:56:26;;;;;;;1.40;1.30;;;;;;;;;;5071356;28;20025;-39
2022/02/25 05:58:52;;;;;;;4.18;2.95;;;;;;;;;;5071252;28;20021;-39
2022/02/25 06:01:17;;;;;;;3.70;2.08;;;;;;;;;;5071373;28;20372;-39
2022/02/25 06:03:43;;;;;;;3.50;2.47;;;;;;;;;;5071488;28;20027;-39
2022/02/25 06:06:09;;;;;;;5.63;2.97;;;;;;;;;;5071108;28;20063;-39
2022/02/25 06:08:34;;;;;;;6.43;2.10;;;;;;;;;;5071304;28;20071;-39
2022/02/25 06:11:00;;;;;;;4.10;2.20;;;;;;;;;;5071145;28;20033;-39
2022/02/25 06:13:25;;;;;;;2.63;2.05;;;;;;;;;;5070882;28;20028;-39
2022/02/25 06:15:51;;;;;;;11.50;2.50;;;;;;;;;;5071131;28;20086;-39
2022/02/25 06:18:17;;;;;;;4.82;2.65;;;;;;;;;;5071017;28;20473;-39
2022/02/25 06:20:43;;;;;;;5.05;2.67;;;;;;;;;;5070988;28;20583;-39
2022/02/25 06:23:08;;;;;;;9.50;3.15;;;;;;;;;;5071299;28;20087;-39
2022/02/25 06:25:34;;;;;;;5.22;3.20;;;;;;;;;;5071177;28;20044;-39
2022/02/25 06:28:00;;;;;;;3.58;2.67;;;;;;;;;;5070896;28;20475;-39
2022/02/25 06:30:25;;;;;;;4.55;2.20;;;;;;;;;;5070992;28;20028;-39
2022/02/25 06:32:52;;;;;;;5.80;2.60;;;;;;;;;;5070786;28;20056;-39
2022/02/25 06:35:17;;;;;;;4.53;3.05;;;;;;;;;;5070795;28;20032;-39
2022/02/25 06:37:43;;;;;;;4.78;3.05;;;;;;;;;;5070846;28;20028;-39
2022/02/25 06:40:09;;;;;;;4.35;2.90;;;;;;;;;;5070867;28;20032;-39
2022/02/25 06:42:35;;;;;;;5.75;2.65;;;;;;;;;;5070673;28;20028;-39
2022/02/25 06:45:00;;;;;;;11.82;3.00;;;;;;;;;;5070741;28;20171;-39
2022/02/25 06:47:26;;;;;;;6.07;2.67;;;;;;;;;;5073154;28;20036;-40
2022/02/25 06:49:51;;;;;;;4.65;2.88;;;;;;;;;;5074771;28;20116;-39
2022/02/25 06:52:16;;;;;;;3.63;2.03;;;;;;;;;;5074713;28;20099;-39
2022/02/25 06:54:42;;;;;;;5.00;2.88;;;;;;;;;;5074740;28;20036;-39
2022/02/25 06:57:08;;;;;;;5.95;2.35;;;;;;;;;;5074378;28;20134;-40
2022/02/25 06:59:34;;;;;;;3.83;2.40;;;;;;;;;;5074309;28;20410;-39
2022/02/25 07:01:59;;;;;;;3.00;2.20;;;;;;;;;;5074669;28;20113;-39
2022/02/25 07:04:25;;;;;;;4.68;2.17;;;;;;;;;;5074027;28;20051;-39
2022/02/25 07:06:51;;;;;;;4.30;2.03;;;;;;;;;;5074245;28;20070;-39
2022/02/25 07:09:17;;;;;;;5.45;2.33;;;;;;;;;;5074392;28;20043;-39
2022/02/25 07:11:42;;;;;;;3.58;2.50;;;;;;;;;;5073212;28;20025;-39
2022/02/25 07:14:09;;;;;;;5.95;3.42;;;;;;;;;;5074131;28;20471;-39
2022/02/25 07:16:34;;;;;;;3.22;1.63;;;;;;;;;;5073968;28;20081;-40
2022/02/25 07:19:00;;;;;;;7.95;2.30;;;;;;;;;;5073996;28;20032;-39
2022/02/25 07:21:25;;;;;;;5.40;2.47;;;;;;;;;;5073926;28;20025;-39
2022/02/25 07:23:51;;;;;;;2.92;2.20;;;;;;;;;;5073858;28;20034;-39
2022/02/25 07:26:16;;;;;;;8.18;2.55;;;;;;;;;;5073899;28;20016;-39
2022/02/25 07:28:42;;;;;;;2.83;1.70;;;;;;;;;;5074039;28;20128;-39
2022/02/25 07:31:07;;;;;;;5.43;2.10;;;;;;;;;;5073614;28;20489;-40
2022/02/25 07:33:33;;;;;;;3.60;2.80;;;;;;;;;;5073707;28;20034;-39
2022/02/25 07:35:58;;;;;;;7.55;2.85;;;;;;;;;;5073713;28;20085;-39
2022/02/25 07:38:24;;;;;;;3.40;2.03;;;;;;;;;;5073634;28;20124;-39
2022/02/25 07:40:50;;;;;;;4.00;1.92;;;;;;;;;;5073871;28;20044;-39
2022/02/25 07:43:18;;;;;;;3.15;2.25;;;;;;;;;;5073516;28;20040;-39
2022/02/25 07:45:51;;;;;;;10.32;2.53;;;;;;;;;;5073583;28;20043;-39
2022/02/25 07:48:17;;;;;;;2.67;1.90;;;;;;;;;;5073711;28;20041;-39
2022/02/25 07:50:44;;;;;;;3.75;2.05;;;;;;;;;;5073725;28;20027;-41
2022/02/25 07:53:10;;;;;;;3.33;2.10;;;;;;;;;;5073604;28;20040;-40
2022/02/25 07:55:35;;;;;;;3.08;2.40;;;;;;;;;;5073329;28;20459;-39
2022/02/25 07:58:01;;;;;;;5.00;2.67;;;;;;;;;;5072756;28;20193;-39
2022/02/25 08:00:27;;;;;;;5.63;1.80;;;;;;;;;;5073211;28;20471;-39
2022/02/25 08:02:53;;;;;;;6.40;1.98;;;;;;;;;;5073152;28;20027;-39
2022/02/25 08:05:19;;;;;;;3.30;2.15;;;;;;;;;;5072082;28;20027;-40
2022/02/25 08:07:44;;;;;;;4.30;1.83;;;;;;;;;;5073379;28;20040;-39
2022/02/25 08:10:10;;;;;;;5.43;2.03;;;;;;;;;;5073375;28;20013;-39
2022/02/25 08:12:35;;;;;;;3.67;2.33;;;;;;;;;;5073199;28;20107;-39
2022/02/25 08:15:01;;;;;;;3.67;2.28;;;;;;;;;;5072815;28;20020;-39
2022/02/25 08:17:27;;;;;;;2.75;2.05;;;;;;;;;;5072771;28;20032;-39
2022/02/25 08:19:52;;;;;;;8.13;2.90;;;;;;;;;;5073166;28;20029;-39
2022/02/25 08:22:22;;;;;;;4.43;2.58;;;;;;;;;;5073042;28;20037;-39
2022/02/25 08:24:48;;;;;;;10.60;3.10;;;;;;;;;;5072974;28;20052;-39
2022/02/25 08:27:14;;;;;;;4.03;1.98;;;;;;;;;;5072642;28;20033;-39
2022/02/25 08:29:40;;;;;;;5.38;2.90;;;;;;;;;;5072778;28;20097;-39
2022/02/25 08:32:06;;;;;;;4.43;2.55;;;;;;;;;;5072405;28;20063;-39
2022/02/25 08:34:32;;;;;;;5.40;2.78;;;;;;;;;;5072480;28;20471;-39
2022/02/25 08:36:57;;;;;;;4.57;2.72;;;;;;;;;;5072741;28;20093;-39
2022/02/25 08:39:23;;;;;;;5.53;2.90;;;;;;;;;;5072723;28;20395;-39
2022/02/25 08:41:48;;;;;;;3.63;2.28;;;;;;;;;;5072682;28;20032;-39
2022/02/25 08:44:14;;;;;;;4.53;2.42;;;;;;;;;;5072443;28;20406;-39
2022/02/25 08:46:39;;;;;;;3.72;2.38;;;;;;;;;;5072560;28;20031;-39
2022/02/25 08:49:05;;;;;;;8.32;2.67;;;;;;;;;;5072354;28;20024;-39
2022/02/25 08:51:31;;;;;;;5.88;3.03;;;;;;;;;;5072084;28;20108;-39
2022/02/25 08:53:57;;;;;;;5.22;2.42;;;;;;;;;;5072255;28;20024;-39
2022/02/25 08:56:23;;;;;;;3.83;2.65;;;;;;;;;;5072096;28;20024;-40
2022/02/25 08:58:51;;;;;;;4.75;2.30;;;;;;;;;;5072115;28;20524;-39
2022/02/25 09:01:17;;;;;;;6.10;2.30;;;;;;;;;;5070798;28;20070;-39
2022/02/25 09:03:43;;;;;;;5.95;2.10;;;;;;;;;;5072218;28;20024;-39
2022/02/25 09:06:08;;;;;;;2.90;2.60;;;;;;;;;;5072024;28;20036;-39
2022/02/25 09:08:34;;;;;;;6.45;3.08;;;;;;;;;;5071754;28;20040;-39
2022/02/25 09:11:00;;;;;;;6.15;2.15;;;;;;;;;;5070969;28;20032;-39
2022/02/25 09:13:26;;;;;;;2.67;2.00;;;;;;;;;;5071662;28;20028;-39
2022/02/25 09:15:51;;;;;;;5.25;2.47;;;;;;;;;;5071752;28;20025;-39
2022/02/25 09:18:17;;;;;;;5.38;2.35;;;;;;;;;;5071972;28;20059;-39
2022/02/25 09:20:43;;;;;;;6.20;2.65;;;;;;;;;;5071749;28;20028;-39
2022/02/25 09:23:09;;;;;;;4.18;2.50;;;;;;;;;;5071662;28;20016;-39
2022/02/25 09:25:35;;;;;;;4.93;2.78;;;;;;;;;;5071483;28;20036;-39
2022/02/25 09:28:00;;;;;;;3.25;2.28;;;;;;;;;;5071879;28;20032;-39
2022/02/25 09:30:26;;;;;;;4.55;3.10;;;;;;;;;;5071600;28;20032;-39
2022/02/25 09:32:51;;;;;;;6.18;2.97;;;;;;;;;;5071225;28;20075;-39
2022/02/25 09:35:17;;;;;;;5.50;3.25;;;;;;;;;;5071481;28;20032;-39
2022/02/25 09:37:42;;;;;;;9.13;3.58;;;;;;;;;;5071736;28;20033;-39
2022/02/25 09:40:10;;;;;;;5.50;2.95;;;;;;;;;;5071495;28;20054;-39
2022/02/25 09:42:35;;;;;;;4.15;2.30;;;;;;;;;;5071607;28;20174;-39
2022/02/25 09:45:02;;;;;;;6.38;3.00;;;;;;;;;;5071388;28;20104;-39
2022/02/25 09:47:28;;;;;;;6.65;3.28;;;;;;;;;;5071259;28;20482;-39
2022/02/25 09:49:54;;;;;;;6.70;3.33;;;;;;;;;;5071466;28;20032;-39
2022/02/25 09:52:20;;;;;;;3.47;2.72;;;;;;;;;;5071643;28;20027;-39
2022/02/25 09:54:46;;;;;;;4.78;2.53;;;;;;;;;;5071505;28;20121;-39
2022/02/25 09:57:11;;;;;;;4.95;3.03;;;;;;;;;;5071269;28;20466;-39
2022/02/25 09:59:37;;;;;;;7.28;2.60;;;;;;;;;;5071530;28;20730;-39
2022/02/25 10:02:03;;;;;;;6.50;3.42;;;;;;;;;;5071477;28;20021;-39
2022/02/25 10:04:29;;;;;;;6.80;2.83;;;;;;;;;;5071334;28;20029;-39
2022/02/25 10:06:58;;;;;;;14.15;4.45;;;;;;;;;;5071139;28;20122;-39
2022/02/25 10:09:27;;;;;;;3.80;2.80;;;;;;;;;;5071062;28;20052;-39
2022/02/25 10:11:59;;;;;;;8.25;3.22;;;;;;;;;;5071394;28;20024;-39
2022/02/25 10:14:35;;;;;;;6.40;2.60;;;;;;;;;;5071088;28;20043;-39
2022/02/25 10:17:08;;;;;;;5.00;2.97;;;;;;;;;;5071046;28;20032;-39
2022/02/25 10:19:33;;;;;;;6.57;2.33;;;;;;;;;;5070996;28;20491;-39
2022/02/25 10:22:20;;;;;;;7.88;3.95;;;;;;;;;;5072949;28;20028;-39
2022/02/25 10:24:51;;;;;;;8.68;3.67;;;;;;;;;;5075026;28;20028;-39
2022/02/25 10:27:20;;;;;;;6.40;3.05;;;;;;;;;;5074905;28;20037;-39
2022/02/25 10:29:52;;;;;;;5.28;2.90;;;;;;;;;;5074894;28;20031;-39
2022/02/25 10:32:28;;;;;;;10.98;3.90;;;;;;;;;;5074775;28;20117;-39
2022/02/25 10:34:53;;;;;;;10.68;3.60;;;;;;;;;;5074814;28;20036;-40
2022/02/25 10:37:20;;;;;;;9.15;3.55;;;;;;;;;;5075016;28;20021;-39
2022/02/25 10:39:47;;;;;;;12.32;3.90;;;;;;;;;;5074949;28;20067;-39
2022/02/25 10:42:16;;;;;;;11.18;4.05;;;;;;;;;;5074841;28;20035;-39
2022/02/25 10:44:47;;;;;;;9.35;3.22;;;;;;;;;;5074585;28;20033;-39
2022/02/25 10:47:16;;;;;;;12.15;4.22;;;;;;;;;;5073241;28;20036;-39
2022/02/25 10:49:42;;;;;;;9.90;4.60;;;;;;;;;;5074648;28;20075;-39
2022/02/25 10:52:28;;;;;;;13.20;4.60;;;;;;;;;;5074407;28;20070;-40
2022/02/25 10:54:55;;;;;;;15.35;5.10;;;;;;;;;;5074802;28;20033;-40
2022/02/25 10:57:21;;;;;;;13.98;6.10;;;;;;;;;;5074350;28;20046;-39
2022/02/25 10:59:47;;;;;;;13.38;5.85;;;;;;;;;;5074323;28;20040;-39
2022/02/25 11:02:24;;;;;;;13.50;6.00;;;;;;;;;;5074628;28;20021;-39
2022/02/25 11:05:18;;;;;;;22.02;7.85;;;;;;;;;;5074602;28;20394;-39
2022/02/25 11:08:01;;;;;;;21.13;7.57;;;;;;;;;;5071691;28;20099;-39
2022/02/25 11:10:31;;;;;;;14.45;6.60;;;;;;;;;;5072878;28;20025;-39
2022/02/25 11:12:59;;;;;;;23.98;9.95;;;;;;;;;;5074078;28;20039;-39
2022/02/25 11:15:26;;;;;;;18.20;8.75;;;;;;;;;;5074310;28;20028;-40
2022/02/25 11:17:52;;;;;;;22.00;8.48;;;;;;;;;;5074347;28;20024;-39
2022/02/25 11:20:19;;;;;;;15.70;6.25;;;;;;;;;;5074192;28;20111;-39
2022/02/25 11:22:45;;;;;;;12.45;5.22;;;;;;;;;;5073899;28;20027;-39
2022/02/25 11:25:15;;;;;;;21.92;9.02;;;;;;;;;;5074016;28;20028;-39
2022/02/25 11:27:41;;;;;;;25.85;8.80;;;;;;;;;;5073636;28;20041;-39
2022/02/25 11:30:08;;;;;;;12.38;7.03;;;;;;;;;;5073690;28;20032;-39
2022/02/25 11:32:40;;;;;;;6.50;2.22;;;;;;;;;;5072966;28;20056;-39
2022/02/25 11:35:19;;;;;;;13.00;6.68;;;;;;;;;;5073423;28;20025;-39
2022/02/25 11:37:49;;;;;;;26.02;9.07;;;;;;;;;;5074073;28;20390;-39
2022/02/25 11:40:15;;;;;;;14.57;6.43;;;;;;;;;;5073684;28;20060;-39
2022/02/25 11:42:45;;;;;;;14.48;5.70;;;;;;;;;;5073503;28;20474;-39
2022/02/25 11:45:21;;;;;;;8.35;4.72;;;;;;;;;;5073615;28;20063;-39
2022/02/25 11:47:50;;;;;;;14.32;5.05;;;;;;;;;;5073374;28;20040;-39
2022/02/25 11:50:29;;;;;;;14.38;6.40;;;;;;;;;;5073439;28;20111;-39
2022/02/25 11:52:59;;;;;;;11.07;6.28;;;;;;;;;;5073408;28;20459;-39
2022/02/25 11:55:24;;;;;;;12.93;6.15;;;;;;;;;;5073361;28;20028;-39
2022/02/25 11:57:52;;;;;;;12.98;6.20;;;;;;;;;;5073433;28;20128;-39
2022/02/25 12:00:18;;;;;;;12.82;6.18;;;;;;;;;;5073600;28;20372;-39
2022/02/25 12:03:03;;;;;;;11.30;5.75;;;;;;;;;;5073144;28;20036;-39
2022/02/25 12:05:36;;;;;;;12.95;5.78;;;;;;;;;;5073057;28;20059;-39
2022/02/25 12:08:17;;;;;;;12.07;6.25;;;;;;;;;;5073068;28;20511;-39
2022/02/25 12:10:43;;;;;;;16.05;8.40;;;;;;;;;;5071855;28;20420;-39
2022/02/25 12:13:18;;;;;;;14.70;6.32;;;;;;;;;;5073059;28;20032;-39
2022/02/25 12:15:44;;;;;;;14.30;6.07;;;;;;;;;;5073060;28;20044;-39
2022/02/25 12:18:12;;;;;;;10.35;5.95;;;;;;;;;;5072935;28;20028;-39
2022/02/25 12:20:37;;;;;;;16.58;7.85;;;;;;;;;;5072776;28;20032;-39
2022/02/25 12:23:03;;;;;;;9.57;6.05;;;;;;;;;;5072788;28;20498;-39
2022/02/25 12:25:44;;;;;;;14.80;6.03;;;;;;;;;;5071437;28;20032;-39
2022/02/25 12:28:31;;;;;;;17.52;7.80;;;;;;;;;;5072955;28;20036;-39
2022/02/25 12:31:07;;;;;;;15.63;7.40;;;;;;;;;;5072576;28;20136;-39
2022/02/25 12:33:32;;;;;;;14.65;7.60;;;;;;;;;;5072911;28;20040;-39
2022/02/25 12:36:05;;;;;;;16.00;7.35;;;;;;;;;;5072546;28;20482;-39
2022/02/25 12:38:35;;;;;;;15.65;7.30;;;;;;;;;;5072347;28;20025;-39
2022/02/25 12:41:16;;;;;;;13.70;5.35;;;;;;;;;;5072443;28;20024;-39
2022/02/25 12:43:47;;;;;;;17.80;7.47;;;;;;;;;;5072359;28;20360;-39
2022/02/25 12:46:13;;;;;;;14.20;6.25;;;;;;;;;;5072259;28;20043;-39
2022/02/25 12:48:39;;;;;;;12.00;5.70;;;;;;;;;;5072233;28;20120;-39
2022/02/25 12:51:05;;;;;;;16.92;7.03;;;;;;;;;;5072165;28;20043;-39
2022/02/25 12:53:30;;;;;;;18.75;7.30;;;;;;;;;;5072345;28;20078;-39
2022/02/25 12:55:58;;;;;;;11.25;5.60;;;;;;;;;;5072294;28;20052;-39
2022/02/25 12:58:32;;;;;;;14.38;6.88;;;;;;;;;;5072016;28;20024;-39
2022/02/25 13:01:00;;;;;;;10.48;6.70;;;;;;;;;;5072364;28;20178;-39
2022/02/25 13:03:25;;;;;;;14.40;6.18;;;;;;;;;;5071875;28;20107;-39
2022/02/25 13:05:55;;;;;;;13.90;6.15;;;;;;;;;;5072212;28;20029;-39
2022/02/25 13:08:21;;;;;;;13.98;5.90;;;;;;;;;;5071950;28;20071;-39
2022/02/25 13:11:00;;;;;;;12.82;6.57;;;;;;;;;;5071970;28;20418;-40
2022/02/25 13:13:26;;;;;;;9.70;6.38;;;;;;;;;;5071899;28;20040;-39
2022/02/25 13:16:01;;;;;;;12.23;7.07;;;;;;;;;;5071865;28;20095;-39
2022/02/25 13:18:27;;;;;;;10.05;6.43;;;;;;;;;;5071708;28;20085;-39
2022/02/25 13:21:03;;;;;;;13.90;5.78;;;;;;;;;;5071682;28;20016;-39
2022/02/25 13:23:29;;;;;;;10.95;5.80;;;;;;;;;;5071584;28;20032;-39
2022/02/25 13:26:06;;;;;;;12.52;6.05;;;;;;;;;;5071995;28;20024;-39
2022/02/25 13:28:33;;;;;;;11.75;5.45;;;;;;;;;;5071493;28;20036;-39
2022/02/25 13:30:59;;;;;;;9.25;4.95;;;;;;;;;;5071538;28;20030;-39
2022/02/25 13:33:25;;;;;;;12.20;6.68;;;;;;;;;;5071425;28;20044;-39
2022/02/25 13:36:00;;;;;;;14.70;5.97;;;;;;;;;;5071395;28;20386;-39
2022/02/25 13:38:27;;;;;;;10.88;5.20;;;;;;;;;;5071487;28;20028;-39
2022/02/25 13:40:56;;;;;;;15.85;5.70;;;;;;;;;;5071438;28;20024;-39
2022/02/25 13:43:32;;;;;;;13.15;6.57;;;;;;;;;;5071601;28;20111;-39
2022/02/25 13:46:10;;;;;;;11.38;6.22;;;;;;;;;;5071623;28;20032;-39
2022/02/25 13:54:10;;;;;;;10.00;4.28;;;;;;;;;;5071545;28;20031;-40
2022/02/25 13:56:37;;;;;;;8.25;3.72;;;;;;;;;;5070634;28;20024;-39
2022/02/25 13:59:08;;;;;;;6.53;4.18;;;;;;;;;;5071308;28;20086;-39
2022/02/25 14:01:34;;;;;;;10.80;5.15;;;;;;;;;;5071087;28;20032;-39
2022/02/25 14:04:17;;;;;;;7.45;4.95;;;;;;;;;;5071124;28;20489;-39
2022/02/25 14:06:56;;;;;;;9.27;4.53;;;;;;;;;;5071400;28;20033;-39
2022/02/25 14:09:23;;;;;;;7.50;4.38;;;;;;;;;;5071046;28;20039;-40
2022/02/25 14:12:01;;;;;;;8.45;4.05;;;;;;;;;;5071116;28;20467;-39
2022/02/25 14:14:50;;;;;;;6.40;2.90;;;;;;;;;;5070937;28;20119;-39
2022/02/25 14:17:16;;;;;;;5.43;3.42;;;;;;;;;;5063140;28;20036;-39
2022/02/25 14:19:54;;;;;;;6.50;3.65;;;;;;;;;;5071200;28;20077;-39
2022/02/25 14:22:20;;;;;;;7.55;3.80;;;;;;;;;;5071025;28;20016;-39
2022/02/25 14:24:46;;;;;;;6.32;2.97;;;;;;;;;;5070941;28;20043;-39
2022/02/25 14:27:16;;;;;;;4.80;3.80;;;;;;;;;;5071224;28;20098;-39
2022/02/25 14:29:43;;;;;;;3.95;2.60;;;;;;;;;;5071179;28;20425;-39
2022/02/25 14:32:11;;;;;;;5.75;3.80;;;;;;;;;;5070822;28;20044;-39
2022/02/25 14:34:38;;;;;;;3.67;1.38;;;;;;;;;;5070987;28;20417;-39
2022/02/25 14:37:03;;;;;;;4.05;1.95;;;;;;;;;;5070866;28;20035;-39
2022/02/25 14:39:29;;;;;;;3.33;1.60;;;;;;;;;;5070742;28;20024;-39
2022/02/25 14:41:56;;;;;;;1.90;1.73;;;;;;;;;;5071074;28;20438;-39
2022/02/25 14:44:22;;;;;;;2.72;1.70;;;;;;;;;;5071057;28;20020;-39
2022/02/25 14:46:51;;;;;;;1.75;1.30;;;;;;;;;;5070724;28;20140;-39
2022/02/25 14:49:17;;;;;;;2.05;1.85;;;;;;;;;;5070779;28;20061;-39
2022/02/25 14:51:43;;;;;;;4.75;2.03;;;;;;;;;;5070651;28;20033;-39